Time;durP1;ratioP1;P1;durP2;ratioP2;P2;SDS_P1;SDS_P2;PMS_P1;PMS_P2;Temp;Humidity;BMP_temperature;BMP_pressure;BME280_temperature;BME280_humidity;BME280_pressure;Samples;Min_cycle;Max_cycle;Signal;HPM_P1;HPM_P2
2022/10/23 00:01:19;;;;;;;0.83;0.83;;;;;;;16.13;47.65;95582.88;5110693;28;20505;-69
2022/10/23 00:03:47;;;;;;;1.53;1.43;;;;;;;16.32;46.98;95602.34;5098159;28;20452;-68
2022/10/23 00:06:14;;;;;;;2.23;1.30;;;;;;;16.46;47.08;95582.13;5110236;28;20494;-71
2022/10/23 00:08:41;;;;;;;0.40;0.40;;;;;;;16.43;47.01;95577.41;5110769;27;20452;-69
2022/10/23 00:11:13;;;;;;;0.77;0.77;;;;;;;16.50;47.09;95585.84;5105466;28;20554;-71
2022/10/23 00:13:40;;;;;;;1.40;1.37;;;;;;;16.68;46.65;95589.69;5101363;28;20476;-71
2022/10/23 00:16:08;;;;;;;0.57;0.57;;;;;;;16.17;47.69;95579.41;5103930;28;20561;-71
2022/10/23 00:18:36;;;;;;;0.80;0.80;;;;;;;16.42;46.96;95582.97;5091947;28;20542;-70
2022/10/23 00:21:03;;;;;;;0.30;0.30;;;;;;;16.48;46.74;95585.34;5101242;28;20518;-71
2022/10/23 00:23:30;;;;;;;1.67;1.30;;;;;;;16.59;46.47;95576.25;5110358;28;20447;-68
2022/10/23 00:25:57;;;;;;;1.00;1.00;;;;;;;16.25;46.58;95564.81;5094415;28;20704;-71
2022/10/23 00:28:24;;;;;;;3.33;1.93;;;;;;;16.18;47.28;95551.91;5089474;28;21109;-70
2022/10/23 00:30:51;;;;;;;1.00;1.00;;;;;;;16.20;46.60;95567.50;5096188;28;20452;-69
2022/10/23 00:33:18;;;;;;;16.97;2.43;;;;;;;16.38;46.59;95569.50;5096844;28;20461;-70
2022/10/23 00:35:45;;;;;;;0.93;0.93;;;;;;;16.42;46.78;95575.03;5103209;28;20452;-71
2022/10/23 00:38:12;;;;;;;0.77;0.77;;;;;;;16.48;46.50;95572.09;5101053;28;20503;-69
2022/10/23 00:40:41;;;;;;;1.43;1.33;;;;;;;16.52;45.90;95569.69;5108267;28;20800;-72
2022/10/23 00:43:19;;;;;;;0.87;0.87;;;;;;;16.57;46.17;95557.22;5097700;28;20443;-73
2022/10/23 00:45:46;;;;;;;1.93;1.40;;;;;;;16.09;46.83;95568.63;5107983;28;20480;-69
2022/10/23 00:48:13;;;;;;;1.07;0.97;;;;;;;16.20;46.44;95559.59;5099317;28;20556;-69
2022/10/23 00:50:40;;;;;;;0.70;0.70;;;;;;;16.52;46.20;95559.13;5099338;28;20444;-68
2022/10/23 00:53:10;;;;;;;1.77;1.67;;;;;;;16.18;46.68;95553.78;5091302;28;20534;-71
2022/10/23 00:55:38;;;;;;;1.50;1.07;;;;;;;15.55;48.41;95549.31;5092768;28;20440;-73
2022/10/23 00:58:05;;;;;;;1.00;0.93;;;;;;;15.27;48.62;95551.47;5108322;28;20597;-69
2022/10/23 01:00:48;;;;;;;0.97;0.87;;;;;;;15.86;47.96;95566.63;5093251;28;20552;-71
2022/10/23 01:03:18;;;;;;;0.50;0.50;;;;;;;15.75;47.77;95592.31;5091524;28;20486;-67
2022/10/23 01:05:55;;;;;;;1.03;0.90;;;;;;;15.35;49.23;95600.31;5093328;28;20469;-70
2022/10/23 01:08:41;;;;;;;2.17;1.97;;;;;;;15.54;48.20;95585.53;5107814;28;20571;-70
2022/10/23 01:11:19;;;;;;;3.70;2.03;;;;;;;15.31;49.03;95603.78;5099676;28;20974;-71
2022/10/23 01:14:04;;;;;;;1.47;1.43;;;;;;;15.31;48.69;95606.41;5088078;28;20448;-67
2022/10/23 01:16:34;;;;;;;1.47;1.37;;;;;;;15.26;48.14;95607.19;5088917;28;20963;-71
2022/10/23 01:19:06;;;;;;;2.40;2.17;;;;;;;15.42;47.67;95623.84;5088987;28;20433;-69
2022/10/23 01:22:10;;;;;;;2.47;2.23;;;;;;;15.30;48.15;95623.31;5094273;28;20428;-70
2022/10/23 01:24:59;;;;;;;1.63;1.53;;;;;;;15.54;46.93;95621.69;5091531;28;20434;-70
2022/10/23 01:27:31;;;;;;;0.93;0.87;;;;;;;15.75;46.23;95620.56;5087390;28;20485;-67
2022/10/23 01:30:07;;;;;;;1.63;1.53;;;;;;;15.69;45.55;95611.09;5093997;28;20520;-72
2022/10/23 01:32:49;;;;;;;0.90;0.90;;;;;;;15.65;46.17;95631.19;5107390;28;20452;-73
2022/10/23 01:35:24;;;;;;;0.93;0.93;;;;;;;15.13;47.53;95636.78;5088040;28;20437;-69
2022/10/23 01:38:03;;;;;;;2.10;2.00;;;;;;;14.77;49.00;95665.03;5093548;28;20437;-71
2022/10/23 01:40:37;;;;;;;4.80;2.53;;;;;;;15.27;47.62;95654.47;5095517;28;20467;-69
2022/10/23 01:43:11;;;;;;;2.53;2.37;;;;;;;15.16;47.38;95657.38;5094928;28;20436;-68
2022/10/23 01:45:43;;;;;;;2.50;1.80;;;;;;;14.29;50.04;95659.41;5097231;28;20480;-69
2022/10/23 01:48:18;;;;;;;1.03;1.03;;;;;;;14.10;51.03;95661.66;5098561;28;20512;-66
2022/10/23 01:50:45;;;;;;;1.70;1.60;;;;;;;14.58;49.76;95661.28;5094500;28;20445;-70
2022/10/23 01:53:12;;;;;;;2.20;1.27;;;;;;;14.51;49.71;95657.31;5087344;28;20441;-70
2022/10/23 01:55:40;;;;;;;0.67;0.67;;;;;;;14.16;50.90;95632.44;5094589;28;20462;-69
2022/10/23 01:58:20;;;;;;;9.00;3.47;;;;;;;14.81;49.08;95634.44;5095107;28;20496;-67
2022/10/23 02:00:50;;;;;;;1.87;1.77;;;;;;;14.58;49.99;95631.50;5088703;28;20438;-68
2022/10/23 02:03:19;;;;;;;2.73;1.20;;;;;;;14.54;49.98;95654.19;5099056;28;20517;-69
2022/10/23 02:05:46;;;;;;;0.77;0.70;;;;;;;14.68;49.72;95656.03;5122868;28;21026;-66
2022/10/23 02:08:13;;;;;;;2.63;1.77;;;;;;;15.10;48.76;95658.44;5102376;28;20476;-71
2022/10/23 02:11:07;;;;;;;3.60;3.10;;;;;;;14.93;48.58;95663.97;5090939;28;20520;-70
2022/10/23 02:13:38;;;;;;;1.80;1.70;;;;;;;14.89;49.48;95657.63;5099407;28;20447;-69
2022/10/23 02:16:38;;;;;;;0.43;0.43;;;;;;;14.64;49.90;95656.81;5098889;28;20478;-72
2022/10/23 02:19:05;;;;;;;1.87;1.77;;;;;;;14.84;48.73;95652.38;5112246;27;20504;-69
2022/10/23 02:21:47;;;;;;;0.50;0.50;;;;;;;15.27;48.92;95646.53;5098413;28;20531;-68
2022/10/23 02:24:19;;;;;;;0.67;0.60;;;;;;;15.42;47.69;95639.69;5106353;28;20977;-72
2022/10/23 02:26:56;;;;;;;0.67;0.67;;;;;;;15.61;47.85;95641.50;5098255;28;20470;-70
2022/10/23 02:29:29;;;;;;;1.80;1.37;;;;;;;15.55;47.74;95644.41;5110742;28;20446;-67
2022/10/23 02:31:58;;;;;;;2.00;1.53;;;;;;;15.50;47.56;95647.06;5100868;28;20538;-69
2022/10/23 02:34:25;;;;;;;0.20;0.20;;;;;;;15.17;48.01;95643.91;5099929;28;20540;-66
2022/10/23 02:36:52;;;;;;;0.93;0.93;;;;;;;14.89;49.65;95651.59;5097687;28;20584;-66
2022/10/23 02:39:24;;;;;;;0.53;0.53;;;;;;;15.06;48.97;95652.91;5090205;28;20838;-68
2022/10/23 02:42:16;;;;;;;2.63;1.70;;;;;;;15.09;48.50;95656.88;5098193;28;20979;-68
2022/10/23 02:44:55;;;;;;;0.93;0.93;;;;;;;15.46;47.55;95661.84;5097721;28;20466;-68
2022/10/23 02:47:55;;;;;;;1.70;1.60;;;;;;;15.88;47.37;95657.78;5103167;28;20540;-70
2022/10/23 02:50:48;;;;;;;1.23;1.13;;;;;;;16.40;45.85;95667.91;5093511;28;20483;-69
2022/10/23 02:53:21;;;;;;;0.87;0.87;;;;;;;16.64;45.90;95671.47;5092089;28;20460;-69
2022/10/23 02:56:16;;;;;;;1.90;1.80;;;;;;;16.86;45.23;95655.97;5102839;28;20868;-72
2022/10/23 02:59:01;;;;;;;0.30;0.30;;;;;;;16.45;46.05;95643.25;5105924;28;20506;-66
2022/10/23 03:01:38;;;;;;;0.60;0.60;;;;;;;15.92;47.38;95640.34;5096866;28;20500;-72
2022/10/23 03:04:08;;;;;;;0.67;0.67;;;;;;;15.96;46.78;95656.44;5114548;27;20526;-71
2022/10/23 03:06:36;;;;;;;17.00;2.20;;;;;;;15.50;48.02;95670.84;5094564;28;20979;-66
2022/10/23 03:09:06;;;;;;;0.67;0.53;;;;;;;15.68;47.40;95675.56;5096211;28;21113;-70
2022/10/23 03:11:33;;;;;;;0.53;0.53;;;;;;;15.84;47.04;95679.72;5101108;28;20808;-66
2022/10/23 03:14:00;;;;;;;4.87;2.83;;;;;;;16.12;46.91;95684.41;5089182;28;20440;-70
2022/10/23 03:16:28;;;;;;;0.53;0.53;;;;;;;16.23;46.54;95689.41;5089727;28;20502;-69
2022/10/23 03:18:55;;;;;;;0.87;0.87;;;;;;;16.17;46.15;95679.09;5090793;28;20813;-66
2022/10/23 03:21:22;;;;;;;0.60;0.60;;;;;;;16.36;46.24;95695.94;5089177;28;20846;-68
2022/10/23 03:23:51;;;;;;;0.33;0.33;;;;;;;16.25;46.46;95686.47;5089592;28;20486;-68
2022/10/23 03:26:26;;;;;;;0.77;0.77;;;;;;;16.31;45.80;95685.41;5098685;28;20448;-65
2022/10/23 03:28:53;;;;;;;2.83;2.43;;;;;;;15.50;47.88;95700.69;5101665;28;20945;-66
2022/10/23 03:31:21;;;;;;;1.13;0.57;;;;;;;15.41;47.68;95675.88;5089309;28;20554;-69
2022/10/23 03:33:53;;;;;;;3.63;0.97;;;;;;;15.42;48.35;95692.53;5095991;28;20449;-66
2022/10/23 03:36:20;;;;;;;0.70;0.70;;;;;;;15.39;48.52;95687.72;5093041;28;20429;-70
2022/10/23 03:38:47;;;;;;;1.17;1.17;;;;;;;15.68;47.67;95689.56;5107459;28;20865;-70
2022/10/23 03:41:14;;;;;;;1.33;1.33;;;;;;;15.99;47.21;95698.19;5090803;28;20449;-69
2022/10/23 03:43:41;;;;;;;0.90;0.90;;;;;;;16.00;47.02;95700.56;5103307;28;20471;-68
2022/10/23 03:46:11;;;;;;;2.13;1.93;;;;;;;16.46;46.14;95693.25;5099199;28;20499;-69
2022/10/23 03:48:38;;;;;;;1.77;1.67;;;;;;;16.20;46.32;95691.78;5111228;28;20475;-64
2022/10/23 03:51:05;;;;;;;0.80;0.80;;;;;;;16.44;45.83;95690.06;5097211;28;20452;-68
2022/10/23 03:53:32;;;;;;;2.10;1.67;;;;;;;16.36;45.67;95688.00;5097873;28;20441;-66
2022/10/23 03:56:02;;;;;;;2.10;1.37;;;;;;;16.60;45.20;95689.00;5095562;28;20468;-70
2022/10/23 03:58:30;;;;;;;1.40;1.30;;;;;;;16.62;45.22;95702.75;5097411;27;20451;-67
2022/10/23 04:00:57;;;;;;;0.13;0.13;;;;;;;16.75;45.34;95691.53;5088520;28;20490;-65
2022/10/23 04:03:26;;;;;;;0.63;0.63;;;;;;;16.96;44.47;95693.00;5099902;28;20439;-68
2022/10/23 04:05:53;;;;;;;0.67;0.67;;;;;;;17.03;44.04;95700.59;5114360;27;20549;-69
2022/10/23 04:08:21;;;;;;;1.30;1.13;;;;;;;16.81;44.31;95695.72;5088472;28;20508;-69
2022/10/23 04:10:53;;;;;;;0.23;0.23;;;;;;;16.94;44.01;95703.06;5091019;28;20437;-67
2022/10/23 04:13:29;;;;;;;0.73;0.40;;;;;;;17.00;43.43;95694.03;5109033;28;20444;-69
2022/10/23 04:15:56;;;;;;;1.57;1.47;;;;;;;17.08;43.77;95706.66;5093752;28;20441;-71
2022/10/23 04:18:23;;;;;;;2.23;1.77;;;;;;;17.13;43.25;95709.25;5102172;28;20479;-69
2022/10/23 04:20:50;;;;;;;1.30;1.20;;;;;;;17.17;43.28;95720.91;5103527;28;20518;-69
2022/10/23 04:23:17;;;;;;;1.60;1.27;;;;;;;17.12;43.12;95707.69;5102870;28;20436;-67
2022/10/23 04:25:46;;;;;;;12.53;2.20;;;;;;;17.07;43.37;95714.88;5107834;28;20429;-70
2022/10/23 04:28:13;;;;;;;1.13;0.87;;;;;;;17.03;43.53;95717.28;5102730;28;20517;-66
2022/10/23 04:30:40;;;;;;;1.07;1.07;;;;;;;16.38;44.48;95711.53;5093170;28;20448;-69
2022/10/23 04:33:11;;;;;;;1.00;0.97;;;;;;;16.46;44.40;95729.50;5088170;28;20934;-70
2022/10/23 04:35:37;;;;;;;0.80;0.80;;;;;;;16.75;44.19;95722.50;5088123;28;20441;-67
2022/10/23 04:38:04;;;;;;;1.00;0.87;;;;;;;16.73;44.45;95709.53;5106387;28;20848;-66
2022/10/23 04:40:31;;;;;;;1.10;1.10;;;;;;;16.91;43.82;95721.34;5099441;28;20536;-65
2022/10/23 04:42:58;;;;;;;1.13;1.13;;;;;;;16.81;44.41;95724.84;5098447;28;20451;-69
2022/10/23 04:45:25;;;;;;;1.93;1.80;;;;;;;16.69;43.98;95718.31;5087747;28;20429;-72
2022/10/23 04:47:55;;;;;;;1.63;1.43;;;;;;;16.29;44.64;95724.56;5094524;28;20530;-69
2022/10/23 04:50:23;;;;;;;0.43;0.43;;;;;;;16.45;44.17;95715.47;5105510;28;20440;-66
2022/10/23 04:53:09;;;;;;;1.10;0.83;;;;;;;16.74;43.87;95728.84;5100452;28;20585;-69
2022/10/23 04:55:57;;;;;;;0.30;0.30;;;;;;;16.57;43.84;95710.69;5094894;28;20436;-71
2022/10/23 04:58:33;;;;;;;0.60;0.60;;;;;;;16.59;44.24;95724.44;5091852;28;20478;-67
2022/10/23 05:01:01;;;;;;;1.20;1.10;;;;;;;16.69;44.29;95727.03;5087304;28;20425;-68
2022/10/23 05:03:28;;;;;;;2.43;1.37;;;;;;;16.78;43.76;95732.53;5087810;28;20486;-68
2022/10/23 05:05:55;;;;;;;1.37;1.10;;;;;;;16.70;43.42;95725.16;5107115;28;20485;-68
2022/10/23 05:08:40;;;;;;;0.67;0.67;;;;;;;16.70;42.87;95731.25;5095223;28;20528;-69
2022/10/23 05:11:25;;;;;;;0.87;0.87;;;;;;;16.74;43.66;95726.22;5093997;28;20529;-69
2022/10/23 05:13:52;;;;;;;0.73;0.73;;;;;;;16.81;42.49;95724.84;5104532;28;20445;-66
2022/10/23 05:17:05;;;;;;;0.50;0.50;;;;;;;16.69;43.53;95734.97;5101140;28;20441;-68
2022/10/23 05:19:43;;;;;;;0.67;0.67;;;;;;;17.02;42.08;95728.94;5084879;28;20439;-67
2022/10/23 05:22:11;;;;;;;0.63;0.63;;;;;;;17.11;42.30;95732.59;5097839;28;20441;-69
2022/10/23 05:24:50;;;;;;;1.40;1.17;;;;;;;16.75;42.79;95733.09;5086503;28;20439;-69
2022/10/23 05:27:22;;;;;;;1.37;1.23;;;;;;;16.85;42.76;95731.19;5100714;28;20444;-70
2022/10/23 05:29:50;;;;;;;0.70;0.70;;;;;;;16.83;42.46;95735.16;5097319;28;20472;-68
2022/10/23 05:32:24;;;;;;;0.20;0.20;;;;;;;17.21;42.30;95737.81;5100858;28;20437;-71
2022/10/23 05:34:52;;;;;;;0.77;0.77;;;;;;;17.51;42.05;95746.63;5088641;28;20525;-66
2022/10/23 05:37:20;;;;;;;26.93;2.27;;;;;;;17.39;42.89;95749.59;5100593;28;20468;-70
2022/10/23 05:39:47;;;;;;;0.60;0.60;;;;;;;17.50;42.69;95755.66;5113376;28;20433;-69
2022/10/23 05:42:15;;;;;;;0.50;0.50;;;;;;;17.36;42.59;95766.06;5101636;28;20443;-71
2022/10/23 05:44:42;;;;;;;0.83;0.83;;;;;;;17.39;43.25;95764.72;5099707;28;20445;-68
2022/10/23 05:47:28;;;;;;;0.97;0.97;;;;;;;17.36;43.07;95776.66;5092836;28;20464;-70
2022/10/23 05:50:11;;;;;;;1.43;1.13;;;;;;;17.38;43.17;95794.91;5074722;27;21056;-70
2022/10/23 05:52:58;;;;;;;1.73;1.60;;;;;;;17.15;43.35;95797.19;5105903;27;20438;-69
2022/10/23 05:55:32;;;;;;;2.97;2.73;;;;;;;17.28;43.18;95795.00;5091143;28;20909;-68
2022/10/23 05:58:35;;;;;;;0.83;0.83;;;;;;;17.12;43.13;95792.44;5088845;28;20582;-70
2022/10/23 06:01:13;;;;;;;1.10;1.07;;;;;;;17.53;41.83;95800.16;5107172;28;20464;-71
2022/10/23 06:03:55;;;;;;;1.13;1.13;;;;;;;17.13;42.86;95807.25;5104920;27;20472;-67
2022/10/23 06:06:31;;;;;;;0.73;0.73;;;;;;;17.38;42.03;95810.81;5090489;28;20436;-69
2022/10/23 06:08:58;;;;;;;0.60;0.60;;;;;;;17.83;41.75;95810.50;5104164;28;20920;-72
2022/10/23 06:11:25;;;;;;;2.80;2.43;;;;;;;17.81;41.57;95810.00;5101096;28;20451;-66
2022/10/23 06:13:59;;;;;;;1.47;1.37;;;;;;;17.95;41.48;95800.34;5104973;27;20527;-75
2022/10/23 06:16:27;;;;;;;0.40;0.40;;;;;;;18.28;40.89;95815.41;5100874;28;20504;-69
2022/10/23 06:18:56;;;;;;;0.77;0.77;;;;;;;18.46;40.39;95812.06;5100599;28;20441;-69
2022/10/23 06:21:23;;;;;;;0.40;0.40;;;;;;;18.21;40.62;95809.59;5090307;28;20445;-68
2022/10/23 06:23:51;;;;;;;0.73;0.73;;;;;;;18.48;40.15;95809.09;5098274;27;21013;-68
2022/10/23 06:26:21;;;;;;;0.93;0.83;;;;;;;18.24;40.81;95814.38;5111565;27;20479;-68
2022/10/23 06:28:56;;;;;;;2.37;1.63;;;;;;;18.76;40.34;95811.69;5096116;27;20479;-67
2022/10/23 06:31:26;;;;;;;1.10;1.00;;;;;;;18.72;40.81;95802.69;5095114;27;20501;-68
2022/10/23 06:33:56;;;;;;;0.70;0.47;;;;;;;18.18;42.68;95799.56;5098590;27;20437;-70
2022/10/23 06:36:24;;;;;;;0.70;0.70;;;;;;;18.17;43.04;95808.63;5089952;28;20467;-71
2022/10/23 06:38:55;;;;;;;0.30;0.30;;;;;;;18.07;45.14;95808.69;5097885;27;20516;-68
2022/10/23 06:41:38;;;;;;;1.37;0.30;;;;;;;18.50;44.48;95812.28;5099210;27;20476;-72
2022/10/23 06:44:07;;;;;;;1.37;0.77;;;;;;;19.30;43.11;95821.09;5111384;27;20586;-70
2022/10/23 06:46:54;;;;;;;0.47;0.47;;;;;;;19.10;43.92;95822.94;5095107;28;20499;-66
2022/10/23 06:49:59;;;;;;;0.83;0.83;;;;;;;19.08;44.70;95825.09;5102039;28;20551;-67
2022/10/23 06:52:30;;;;;;;0.73;0.73;;;;;;;19.62;44.53;95823.81;5103830;28;21348;-69
2022/10/23 06:55:17;;;;;;;3.03;0.90;;;;;;;19.72;44.41;95826.34;5100456;28;20524;-66
2022/10/23 06:57:44;;;;;;;0.47;0.47;;;;;;;20.10;43.38;95830.50;5105083;28;20468;-69
2022/10/23 07:00:12;;;;;;;2.33;1.60;;;;;;;19.84;43.98;95826.66;5104239;28;20449;-69
2022/10/23 07:02:49;;;;;;;1.50;0.60;;;;;;;19.72;44.80;95827.13;5091057;28;20440;-69
2022/10/23 07:05:16;;;;;;;1.30;1.20;;;;;;;20.07;44.24;95831.09;5109212;28;20437;-71
2022/10/23 07:07:43;;;;;;;11.67;1.80;;;;;;;20.31;44.17;95818.44;5110118;28;20489;-68
2022/10/23 07:10:14;;;;;;;0.40;0.40;;;;;;;20.33;43.93;95810.94;5098263;28;20867;-68
2022/10/23 07:12:46;;;;;;;0.73;0.57;;;;;;;20.30;44.78;95808.88;5093964;28;20446;-64
2022/10/23 07:15:35;;;;;;;0.60;0.53;;;;;;;20.53;43.56;95813.25;5089551;28;20967;-68
2022/10/23 07:18:04;;;;;;;0.73;0.57;;;;;;;21.05;42.61;95810.09;5091572;27;20883;-68
2022/10/23 07:20:57;;;;;;;0.60;0.60;;;;;;;21.12;42.34;95804.34;5096062;28;20453;-66
2022/10/23 07:23:24;;;;;;;1.07;0.97;;;;;;;20.86;42.56;95820.03;5093720;27;20501;-65
2022/10/23 07:25:52;;;;;;;0.43;0.43;;;;;;;20.92;42.60;95823.41;5106090;28;20452;-68
2022/10/23 07:28:21;;;;;;;0.80;0.80;;;;;;;20.88;42.80;95820.53;5106523;28;20546;-69
2022/10/23 07:30:59;;;;;;;2.17;0.93;;;;;;;21.27;42.20;95817.34;5109487;28;20472;-69
2022/10/23 07:33:43;;;;;;;2.00;1.83;;;;;;;21.40;41.44;95805.88;5096383;28;20450;-65
2022/10/23 07:36:16;;;;;;;1.50;1.40;;;;;;;21.46;42.08;95819.88;5107092;28;20475;-66
2022/10/23 07:38:43;;;;;;;0.73;0.73;;;;;;;21.52;41.72;95814.13;5109126;28;20979;-66
2022/10/23 07:41:11;;;;;;;1.03;0.97;;;;;;;21.23;41.79;95834.25;5102619;28;20446;-66
2022/10/23 07:43:38;;;;;;;1.13;0.83;;;;;;;21.24;42.01;95817.16;5094040;28;20528;-71
2022/10/23 07:46:08;;;;;;;0.73;0.73;;;;;;;21.39;41.21;95819.47;5104380;28;20483;-68
2022/10/23 07:48:38;;;;;;;0.77;0.77;;;;;;;22.08;40.48;95818.94;5100246;27;20487;-67
2022/10/23 07:51:11;;;;;;;0.30;0.30;;;;;;;22.33;40.22;95818.31;5092334;28;20445;-68
2022/10/23 07:53:44;;;;;;;1.10;0.60;;;;;;;22.43;39.50;95793.19;5101340;28;20494;-67
2022/10/23 07:56:30;;;;;;;1.00;0.60;;;;;;;22.62;38.71;95794.59;5091154;28;20955;-66
2022/10/23 07:59:15;;;;;;;1.17;1.03;;;;;;;22.69;39.30;95794.91;5092813;28;20460;-76
2022/10/23 08:01:48;;;;;;;2.03;1.83;;;;;;;22.87;38.58;95803.75;5088390;28;20437;-67
2022/10/23 08:04:20;;;;;;;1.43;1.33;;;;;;;23.08;37.60;95802.88;5103773;28;20543;-69
2022/10/23 08:06:55;;;;;;;0.30;0.30;;;;;;;22.86;37.39;95808.31;5099445;28;20194;-63
2022/10/23 08:09:24;;;;;;;0.80;0.70;;;;;;;22.46;38.85;95809.41;5093637;28;20474;-64
2022/10/23 08:11:51;;;;;;;0.27;0.27;;;;;;;22.65;38.68;95815.31;5094338;28;20202;-65
2022/10/23 08:14:20;;;;;;;0.53;0.53;;;;;;;23.19;37.40;95797.22;5095004;27;20198;-63
2022/10/23 08:16:47;;;;;;;0.57;0.57;;;;;;;23.35;36.99;95807.19;5090615;28;20977;-65
2022/10/23 08:19:14;;;;;;;1.13;0.97;;;;;;;23.98;36.16;95811.88;5093042;28;20199;-63
2022/10/23 08:21:43;;;;;;;1.87;1.37;;;;;;;23.92;37.30;95807.81;5109381;28;20637;-67
2022/10/23 08:24:12;;;;;;;0.90;0.70;;;;;;;23.86;36.66;95814.44;5102000;27;20202;-67
2022/10/23 08:26:42;;;;;;;4.17;0.93;;;;;;;23.20;37.77;95793.44;5102529;28;20202;-66
2022/10/23 08:29:10;;;;;;;0.33;0.33;;;;;;;22.26;39.29;95809.94;5108093;27;20213;-77
2022/10/23 08:31:37;;;;;;;4.60;1.77;;;;;;;23.25;38.70;95810.13;5093891;27;20198;-66
2022/10/23 08:34:10;;;;;;;0.37;0.37;;;;;;;23.65;37.75;95813.50;5096940;28;20210;-67
2022/10/23 08:36:38;;;;;;;1.33;0.80;;;;;;;23.42;37.83;95815.53;5094136;28;20259;-71
2022/10/23 08:39:06;;;;;;;1.07;1.00;;;;;;;23.05;38.36;95818.75;5103908;28;20187;-73
2022/10/23 08:41:37;;;;;;;0.40;0.40;;;;;;;23.69;37.39;95811.75;5103950;28;20259;-67
2022/10/23 08:44:35;;;;;;;0.53;0.50;;;;;;;23.61;37.53;95820.59;5098358;28;20206;-67
2022/10/23 08:47:18;;;;;;;0.23;0.23;;;;;;;23.90;37.32;95807.34;5109018;28;20274;-63
2022/10/23 08:50:21;;;;;;;0.73;0.70;;;;;;;23.58;38.12;95805.13;5109257;28;20224;-69
2022/10/23 08:53:15;;;;;;;0.20;0.20;;;;;;;23.71;37.33;95807.66;5097629;28;20186;-70
2022/10/23 08:55:54;;;;;;;1.13;0.70;;;;;;;24.03;36.49;95799.16;5085706;28;20202;-70
2022/10/23 08:58:49;;;;;;;0.67;0.67;;;;;;;24.59;36.08;95808.75;5108453;28;20289;-66
2022/10/23 09:01:41;;;;;;;1.60;0.73;;;;;;;23.98;36.86;95806.53;5088139;28;20231;-68
2022/10/23 09:04:12;;;;;;;0.57;0.57;;;;;;;23.96;36.88;95806.06;5104634;28;20199;-64
2022/10/23 09:07:13;;;;;;;1.17;0.83;;;;;;;24.29;36.30;95806.34;5099472;28;20207;-68
2022/10/23 09:09:47;;;;;;;46.13;1.50;;;;;;;24.34;36.62;95803.50;5100129;28;20218;-71
2022/10/23 09:12:19;;;;;;;0.57;0.53;;;;;;;24.86;35.89;95797.63;5095311;28;20213;-67
2022/10/23 09:15:00;;;;;;;1.03;0.80;;;;;;;25.33;35.09;95781.41;5099845;28;20195;-67
2022/10/23 09:17:31;;;;;;;0.40;0.40;;;;;;;25.10;35.09;95791.66;5099540;28;20233;-69
2022/10/23 09:20:19;;;;;;;0.83;0.83;;;;;;;25.17;34.97;95791.13;5091932;28;20195;-65
2022/10/23 09:22:48;;;;;;;0.43;0.43;;;;;;;25.54;34.12;95787.59;5090191;28;20290;-65
2022/10/23 09:25:21;;;;;;;0.47;0.47;;;;;;;25.25;35.00;95803.72;5093657;28;20713;-66
2022/10/23 09:27:52;;;;;;;1.47;1.37;;;;;;;24.77;35.35;95794.22;5095250;28;20195;-64
2022/10/23 09:30:42;;;;;;;0.60;0.53;;;;;;;25.24;35.69;95791.41;5096322;28;20221;-68
2022/10/23 09:33:25;;;;;;;0.83;0.43;;;;;;;25.32;34.72;95782.50;5096910;28;20202;-63
2022/10/23 09:35:55;;;;;;;1.13;0.93;;;;;;;25.73;34.90;95787.91;5094622;28;20302;-67
2022/10/23 09:38:38;;;;;;;0.40;0.40;;;;;;;25.08;34.93;95789.31;5087033;28;20252;-67
2022/10/23 09:41:12;;;;;;;0.20;0.20;;;;;;;24.76;35.12;95787.25;5101444;28;20778;-67
2022/10/23 09:43:39;;;;;;;1.73;1.30;;;;;;;24.90;34.82;95787.84;5097686;28;20221;-64
2022/10/23 09:46:08;;;;;;;1.57;1.47;;;;;;;24.64;34.89;95781.78;5088278;28;20605;-68
2022/10/23 09:48:38;;;;;;;0.50;0.50;;;;;;;24.65;35.15;95777.97;5087970;28;20210;-67
2022/10/23 09:51:20;;;;;;;0.57;0.57;;;;;;;25.03;34.02;95786.03;5099686;28;20203;-68
2022/10/23 09:53:57;;;;;;;0.27;0.27;;;;;;;25.36;34.08;95786.13;5103194;28;20677;-74
2022/10/23 09:56:25;;;;;;;25.67;3.07;;;;;;;24.74;34.02;95784.13;5089385;28;20207;-69
2022/10/23 09:59:14;;;;;;;0.30;0.30;;;;;;;24.86;33.28;95786.13;5105373;28;20182;-65
2022/10/23 10:01:53;;;;;;;0.20;0.20;;;;;;;25.54;32.96;95784.91;5100194;28;20187;-71
2022/10/23 10:04:56;;;;;;;0.50;0.40;;;;;;;25.57;33.54;95778.88;5105596;28;20217;-66
2022/10/23 10:07:29;;;;;;;0.50;0.47;;;;;;;26.04;32.88;95777.50;5088888;28;20578;-69
2022/10/23 10:10:00;;;;;;;0.23;0.23;;;;;;;25.64;32.67;95773.75;5101623;28;20599;-65
2022/10/23 10:12:48;;;;;;;0.50;0.30;;;;;;;26.40;32.16;95769.53;5092007;28;20298;-70
2022/10/23 10:15:34;;;;;;;0.30;0.30;;;;;;;26.00;31.38;95760.47;5099044;28;20238;-68
2022/10/23 10:18:20;;;;;;;0.20;0.20;;;;;;;25.25;31.94;95761.59;5089320;28;20195;-66
2022/10/23 10:21:05;;;;;;;1.57;1.47;;;;;;;25.92;31.68;95753.28;5104783;28;20198;-72
2022/10/23 10:24:09;;;;;;;0.80;0.80;;;;;;;26.14;31.47;95750.25;5094684;28;20191;-67
2022/10/23 10:26:45;;;;;;;0.47;0.47;;;;;;;26.21;30.11;95738.94;5099678;28;20218;-66
2022/10/23 10:29:28;;;;;;;0.83;0.40;;;;;;;25.36;30.95;95751.25;5097530;28;20210;-65
2022/10/23 10:32:12;;;;;;;0.27;0.27;;;;;;;25.81;31.32;95736.81;5100203;28;20253;-62
2022/10/23 10:34:47;;;;;;;0.30;0.30;;;;;;;25.92;30.43;95747.91;5097023;27;20217;-64
2022/10/23 10:37:46;;;;;;;0.30;0.30;;;;;;;25.64;30.33;95747.69;5104834;28;20231;-64
2022/10/23 10:40:24;;;;;;;0.30;0.30;;;;;;;26.19;29.97;95731.22;5097465;28;20209;-64
2022/10/23 10:42:57;;;;;;;1.80;0.97;;;;;;;26.67;29.84;95736.63;5091151;28;20194;-68
2022/10/23 10:45:40;;;;;;;0.67;0.33;;;;;;;26.13;30.26;95737.91;5095298;27;20207;-64
2022/10/23 10:48:16;;;;;;;0.60;0.60;;;;;;;25.94;29.85;95737.63;5091355;28;20207;-65
2022/10/23 10:51:36;;;;;;;2.70;0.63;;;;;;;25.97;31.04;95731.56;5099497;27;20697;-67
2022/10/23 10:54:24;;;;;;;8.00;4.17;;;;;;;26.54;30.04;95745.81;5105196;28;20199;-64
2022/10/23 10:56:51;;;;;;;1.47;0.57;;;;;;;26.01;30.38;95725.22;5090798;28;20611;-66
2022/10/23 10:59:30;;;;;;;0.50;0.50;;;;;;;26.24;30.52;95727.53;5110922;28;21016;-65
2022/10/23 11:02:19;;;;;;;0.20;0.20;;;;;;;26.14;30.30;95728.75;5104621;28;20205;-63
2022/10/23 11:04:56;;;;;;;0.30;0.30;;;;;;;25.97;31.22;95723.53;5107995;27;20679;-66
2022/10/23 11:07:31;;;;;;;0.20;0.20;;;;;;;25.78;31.37;95737.44;5110080;27;20205;-64
2022/10/23 11:10:03;;;;;;;0.13;0.13;;;;;;;25.68;31.18;95720.97;5100942;27;20221;-62
2022/10/23 11:12:30;;;;;;;1.20;1.03;;;;;;;26.07;31.04;95719.66;5111347;28;20637;-68
2022/10/23 11:14:56;;;;;;;3.83;1.07;;;;;;;25.83;30.44;95723.84;5104374;27;20221;-63
2022/10/23 11:17:28;;;;;;;0.10;0.10;;;;;;;25.71;30.49;95699.63;5094633;28;20221;-66
2022/10/23 11:20:04;;;;;;;0.97;0.70;;;;;;;25.98;30.24;95717.81;5107123;28;20552;-65
2022/10/23 11:22:41;;;;;;;0.20;0.20;;;;;;;26.18;30.19;95702.78;5110946;28;20572;-63
2022/10/23 11:25:11;;;;;;;0.20;0.20;;;;;;;26.77;29.90;95698.53;5111531;27;20254;-62
2022/10/23 11:28:00;;;;;;;0.57;0.43;;;;;;;26.41;30.36;95689.69;5109535;28;20194;-62
2022/10/23 11:30:43;;;;;;;0.33;0.33;;;;;;;26.31;29.50;95695.53;5106299;28;20234;-62
2022/10/23 11:33:34;;;;;;;1.13;0.57;;;;;;;26.13;30.49;95689.56;5107121;28;20207;-61
2022/10/23 11:36:19;;;;;;;0.20;0.20;;;;;;;26.32;29.77;95689.81;5102932;28;20209;-64
2022/10/23 11:38:49;;;;;;;1.13;1.07;;;;;;;26.37;29.56;95683.44;5099442;28;20207;-64
2022/10/23 11:41:25;;;;;;;10.80;1.80;;;;;;;26.76;29.51;95678.16;5097729;28;20203;-64
2022/10/23 11:44:05;;;;;;;0.37;0.37;;;;;;;26.65;29.23;95677.03;5102842;28;20317;-66
2022/10/23 11:46:37;;;;;;;0.67;0.67;;;;;;;26.71;29.44;95681.09;5106592;28;20594;-65
2022/10/23 11:49:19;;;;;;;0.93;0.90;;;;;;;26.80;29.54;95670.19;5095967;28;20199;-61
2022/10/23 11:51:46;;;;;;;1.13;0.70;;;;;;;26.64;29.39;95678.13;5096910;27;20195;-63
2022/10/23 11:54:16;;;;;;;0.40;0.40;;;;;;;27.07;28.61;95676.75;5095812;28;20561;-63
2022/10/23 11:57:09;;;;;;;0.30;0.30;;;;;;;27.11;28.76;95672.25;5098030;27;20214;-65
2022/10/23 11:59:48;;;;;;;0.23;0.23;;;;;;;27.28;28.33;95677.38;5090151;28;20195;-63
2022/10/23 12:02:37;;;;;;;1.30;0.93;;;;;;;27.33;27.89;95671.75;5104251;28;20200;-64
2022/10/23 12:05:35;;;;;;;0.30;0.30;;;;;;;27.46;27.64;95659.81;5101254;28;20212;-64
2022/10/23 12:08:05;;;;;;;0.57;0.57;;;;;;;27.49;27.63;95662.59;5097410;28;20287;-62
2022/10/23 12:10:35;;;;;;;0.27;0.27;;;;;;;27.04;27.93;95665.53;5101825;28;20226;-63